sensor_id;sensor_type;location;lat;lon;timestamp;pressure;altitude;pressure_sealevel;temperature;humidity
74427;BME280;62859;53.906;27.430;2024-02-28T01:54:27;1012.6;;;7;55.6
74427;BME280;62859;53.906;27.430;2024-02-28T02:00:06;1012.4;;;7.1;55.4
74427;BME280;62859;53.906;27.430;2024-02-28T02:05:06;1012.4;;;7.2;55.2
74427;BME280;62859;53.906;27.430;2024-02-28T02:09:39;1012.4;;;7.2;55.2
74427;BME280;62859;53.906;27.430;2024-02-28T02:15:04;1012.5;;;7.2;55.2
74427;BME280;62859;53.906;27.430;2024-02-28T02:20:04;1012.5;;;7.2;55.3
74427;BME280;62859;53.906;27.430;2024-02-28T02:24:51;1012.5;;;7.2;55.3
74427;BME280;62859;53.906;27.430;2024-02-28T02:30:04;1012.5;;;7.3;55.4
74427;BME280;62859;53.906;27.430;2024-02-28T02:34:53;1012.5;;;7.3;55.4
74427;BME280;62859;53.906;27.430;2024-02-28T02:40:02;1012.5;;;7.3;55.1
74427;BME280;62859;53.906;27.430;2024-02-28T02:44:25;1012.5;;;7.3;55.1
74427;BME280;62859;53.906;27.430;2024-02-28T02:50:02;1012.5;;;7.3;55.1
74427;BME280;62859;53.906;27.430;2024-02-28T02:54:53;1012.6;;;7.2;55.2
74427;BME280;62859;53.906;27.430;2024-02-28T03:00:04;1012.6;;;7.2;55.4
74427;BME280;62859;53.906;27.430;2024-02-28T03:04:39;1012.6;;;7.2;55.4
74427;BME280;62859;53.906;27.430;2024-02-28T03:10:04;1012.6;;;7.3;55.4
74427;BME280;62859;53.906;27.430;2024-02-28T03:14:20;1012.6;;;7.3;55.4
74427;BME280;62859;53.906;27.430;2024-02-28T03:20:02;1012.6;;;7.2;55.3
74427;BME280;62859;53.906;27.430;2024-02-28T03:24:19;1012.5;;;7.3;55.3
74427;BME280;62859;53.906;27.430;2024-02-28T03:29:25;1012.5;;;7.2;55.3
74427;BME280;62859;53.906;27.430;2024-02-28T03:34:47;1012.5;;;7.1;55.6
74427;BME280;62859;53.906;27.430;2024-02-28T03:39:55;1012.5;;;7.1;55.6
74427;BME280;62859;53.906;27.430;2024-02-28T03:44:55;1012.5;;;7;55.8
74427;BME280;62859;53.906;27.430;2024-02-28T03:49:45;1012.5;;;7;55.7
74427;BME280;62859;53.906;27.430;2024-02-28T03:55:06;1012.6;;;7;56.2
74427;BME280;62859;53.906;27.430;2024-02-28T03:59:30;1012.6;;;7;56.2
74427;BME280;62859;53.906;27.430;2024-02-28T04:05:04;1012.6;;;7;56.2
74427;BME280;62859;53.906;27.430;2024-02-28T04:10:06;1012.6;;;7;56.1
74427;BME280;62859;53.906;27.430;2024-02-28T04:14:46;1012.6;;;7;56.1
74427;BME280;62859;53.906;27.430;2024-02-28T04:19:28;1012.6;;;7;56
74427;BME280;62859;53.906;27.430;2024-02-28T04:25:07;1012.5;;;6.9;56.2
74427;BME280;62859;53.906;27.430;2024-02-28T04:29:38;1012.5;;;6.9;56.2
74427;BME280;62859;53.906;27.430;2024-02-28T04:35:06;1012.5;;;6.8;56.2
74427;BME280;62859;53.906;27.430;2024-02-28T04:39:56;1012.5;;;6.8;56.2
74427;BME280;62859;53.906;27.430;2024-02-28T04:45:04;1012.6;;;6.7;56.8
74427;BME280;62859;53.906;27.430;2024-02-28T04:49:20;1012.6;;;6.7;56.8
74427;BME280;62859;53.906;27.430;2024-02-28T04:54:56;1012.6;;;6.6;57
74427;BME280;62859;53.906;27.430;2024-02-28T04:59:28;1012.6;;;6.6;57.1
74427;BME280;62859;53.906;27.430;2024-02-28T05:04:20;1012.6;;;6.5;57.1
74427;BME280;62859;53.906;27.430;2024-02-28T05:09:28;1012.6;;;6.5;57.3
74427;BME280;62859;53.906;27.430;2024-02-28T05:15:06;1012.7;;;6.5;57
74427;BME280;62859;53.906;27.430;2024-02-28T05:19:56;1012.7;;;6.5;57
74427;BME280;62859;53.906;27.430;2024-02-28T05:24:38;1012.6;;;6.5;57
74427;BME280;62859;53.906;27.430;2024-02-28T05:30:06;1012.7;;;6.5;57.2
74427;BME280;62859;53.906;27.430;2024-02-28T05:34:38;1012.7;;;6.5;57.2
74427;BME280;62859;53.906;27.430;2024-02-28T05:39:30;1012.6;;;6.5;56.8
74427;BME280;62859;53.906;27.430;2024-02-28T05:44:36;1012.6;;;6.5;56.9
74427;BME280;62859;53.906;27.430;2024-02-28T05:49:30;1012.6;;;6.5;57
74427;BME280;62859;53.906;27.430;2024-02-28T05:54:20;1012.6;;;6.5;57
74427;BME280;62859;53.906;27.430;2024-02-28T05:59:57;1012.6;;;6.5;56.9
74427;BME280;62859;53.906;27.430;2024-02-28T06:04:20;1012.6;;;6.7;57.3
74427;BME280;62859;53.906;27.430;2024-02-28T06:09:46;1012.7;;;6.7;56.4
74427;BME280;62859;53.906;27.430;2024-02-28T06:14:20;1012.6;;;6.7;56.4
74427;BME280;62859;53.906;27.430;2024-02-28T06:20:06;1012.7;;;6.8;56.1
74427;BME280;62859;53.906;27.430;2024-02-28T06:25:06;1012.6;;;6.8;56
74427;BME280;62859;53.906;27.430;2024-02-28T06:29:20;1012.6;;;6.8;56
74427;BME280;62859;53.906;27.430;2024-02-28T06:34:28;1012.7;;;6.8;55.8
74427;BME280;62859;53.906;27.430;2024-02-28T06:39:46;1012.6;;;6.8;55.8
74427;BME280;62859;53.906;27.430;2024-02-28T06:44:28;1012.6;;;6.8;55.8
74427;BME280;62859;53.906;27.430;2024-02-28T06:49:46;1012.6;;;6.9;55.6
74427;BME280;62859;53.906;27.430;2024-02-28T06:55:06;1012.6;;;6.8;55.6
74427;BME280;62859;53.906;27.430;2024-02-28T06:59:28;1012.6;;;6.8;55.6
74427;BME280;62859;53.906;27.430;2024-02-28T07:04:56;1012.6;;;6.9;55.6
74427;BME280;62859;53.906;27.430;2024-02-28T07:09:28;1012.5;;;7;55.5
74427;BME280;62859;53.906;27.430;2024-02-28T07:15:06;1012.6;;;7.1;55.1
74427;BME280;62859;53.906;27.430;2024-02-28T07:19:48;1012.6;;;7.1;55.1
74427;BME280;62859;53.906;27.430;2024-02-28T07:24:56;1012.7;;;7.3;54.7
74427;BME280;62859;53.906;27.430;2024-02-28T07:29:36;1012.7;;;7.4;54.7
74427;BME280;62859;53.906;27.430;2024-02-28T07:34:56;1012.7;;;7.6;54.4
74427;BME280;62859;53.906;27.430;2024-02-28T07:40:06;1012.7;;;7.8;53.9
74427;BME280;62859;53.906;27.430;2024-02-28T07:45:06;1012.7;;;7.9;53.7
74427;BME280;62859;53.906;27.430;2024-02-28T07:49:20;1012.7;;;7.9;53.7
74427;BME280;62859;53.906;27.430;2024-02-28T07:54:56;1012.7;;;8;53.6
74427;BME280;62859;53.906;27.430;2024-02-28T08:00:06;1012.8;;;8.4;52.8
74427;BME280;62859;53.906;27.430;2024-02-28T08:04:20;1012.8;;;8.4;52.8
74427;BME280;62859;53.906;27.430;2024-02-28T08:09:20;1012.8;;;8.5;52.7
74427;BME280;62859;53.906;27.430;2024-02-28T08:14:20;1012.7;;;8.6;52
74427;BME280;62859;53.906;27.430;2024-02-28T08:19:28;1012.7;;;8.9;52.1
74427;BME280;62859;53.906;27.430;2024-02-28T08:24:20;1012.7;;;9.2;50.6
74427;BME280;62859;53.906;27.430;2024-02-28T08:29:36;1012.6;;;9.5;50.3
74427;BME280;62859;53.906;27.430;2024-02-28T08:34:20;1012.6;;;9.8;49.2
74427;BME280;62859;53.906;27.430;2024-02-28T08:40:06;1012.5;;;10.4;47.9
74427;BME280;62859;53.906;27.430;2024-02-28T08:44:58;1012.5;;;10.4;47.9
74427;BME280;62859;53.906;27.430;2024-02-28T08:50:06;1012.4;;;11.1;46.5
74427;BME280;62859;53.906;27.430;2024-02-28T08:55:06;1012.4;;;11.2;47
74427;BME280;62859;53.906;27.430;2024-02-28T08:59:56;1012.4;;;11.2;47
74427;BME280;62859;53.906;27.430;2024-02-28T09:05:06;1012.4;;;11.5;45.4
74427;BME280;62859;53.906;27.430;2024-02-28T09:10:06;1012.4;;;11.6;45.3
74427;BME280;62859;53.906;27.430;2024-02-28T09:14:30;1012.4;;;11.6;45.3
74427;BME280;62859;53.906;27.430;2024-02-28T09:19:56;1012.3;;;11.6;45.5
74427;BME280;62859;53.906;27.430;2024-02-28T09:25:06;1012.4;;;11.8;45.5
74427;BME280;62859;53.906;27.430;2024-02-28T09:29:40;1012.4;;;11.8;45.5
74427;BME280;62859;53.906;27.430;2024-02-28T09:35:06;1012.3;;;12;45.3
74427;BME280;62859;53.906;27.430;2024-02-28T09:39:37;1012.3;;;12;45.3
74427;BME280;62859;53.906;27.430;2024-02-28T09:45:06;1012.3;;;12.2;44.5
74427;BME280;62859;53.906;27.430;2024-02-28T09:50:06;1012.2;;;12.4;44.3
74427;BME280;62859;53.906;27.430;2024-02-28T09:54:28;1012.2;;;12.4;44.3
74427;BME280;62859;53.906;27.430;2024-02-28T09:59:28;1012.2;;;12.6;43.7
74427;BME280;62859;53.906;27.430;2024-02-28T10:04:20;1012.1;;;12.8;43.9
74427;BME280;62859;53.906;27.430;2024-02-28T10:09:20;1012.1;;;13.1;43.1
74427;BME280;62859;53.906;27.430;2024-02-28T10:15:06;1012.1;;;13.4;42.6
74427;BME280;62859;53.906;27.430;2024-02-28T10:19:57;1012.1;;;13.4;42.6
74427;BME280;62859;53.906;27.430;2024-02-28T10:24:20;1012.1;;;13.5;42.5
74427;BME280;62859;53.906;27.430;2024-02-28T10:30:06;1012;;;13.6;41.9
74427;BME280;62859;53.906;27.430;2024-02-28T10:34:28;1012;;;13.6;41.9
74427;BME280;62859;53.906;27.430;2024-02-28T10:39:38;1012;;;13.4;42.2
74427;BME280;62859;53.906;27.430;2024-02-28T10:44:36;1012;;;13.3;42.8
74427;BME280;62859;53.906;27.430;2024-02-28T10:50:06;1012;;;13.5;42.4
74427;BME280;62859;53.906;27.430;2024-02-28T10:54:36;1012;;;13.5;42.4
74427;BME280;62859;53.906;27.430;2024-02-28T10:59:56;1011.8;;;13.7;42.5
74427;BME280;62859;53.906;27.430;2024-02-28T11:04:38;1011.8;;;14;42.1
74427;BME280;62859;53.906;27.430;2024-02-28T11:09:46;1011.7;;;14.3;41.4
74427;BME280;62859;53.906;27.430;2024-02-28T11:14:36;1011.8;;;14.6;40.7
74427;BME280;62859;53.906;27.430;2024-02-28T11:20:13;1011.7;;;14.9;39.7
74427;BME280;62859;53.906;27.430;2024-02-28T11:25:06;1011.7;;;15;39.4
74427;BME280;62859;53.906;27.430;2024-02-28T11:29:21;1011.7;;;15;39.4
74427;BME280;62859;53.906;27.430;2024-02-28T11:34:36;1011.7;;;15.4;39.2
74427;BME280;62859;53.906;27.430;2024-02-28T11:39:20;1011.6;;;15.7;38.4
74427;BME280;62859;53.906;27.430;2024-02-28T11:44:20;1011.6;;;16;38.6
74427;BME280;62859;53.906;27.430;2024-02-28T11:49:32;1011.5;;;16.4;37.5
74427;BME280;62859;53.906;27.430;2024-02-28T11:54:46;1011.4;;;16.8;36.9
74427;BME280;62859;53.906;27.430;2024-02-28T11:59:46;1011.4;;;17.1;36.4
74427;BME280;62859;53.906;27.430;2024-02-28T12:04:59;1011.5;;;17;36.3
74427;BME280;62859;53.906;27.430;2024-02-28T12:09:20;1011.4;;;16.9;36.2
74427;BME280;62859;53.906;27.430;2024-02-28T12:15:04;1011.3;;;16.7;36
74427;BME280;62859;53.906;27.430;2024-02-28T12:19:20;1011.3;;;16.7;36
74427;BME280;62859;53.906;27.430;2024-02-28T12:24:56;1011.3;;;16.6;35.9
74427;BME280;62859;53.906;27.430;2024-02-28T12:29:50;1011.3;;;16.5;36.5
74427;BME280;62859;53.906;27.430;2024-02-28T12:34:40;1011.3;;;16.3;36.7
74427;BME280;62859;53.906;27.430;2024-02-28T12:40:06;1011.3;;;16;37
74427;BME280;62859;53.906;27.430;2024-02-28T12:44:30;1011.3;;;16;37
74427;BME280;62859;53.906;27.430;2024-02-28T12:49:40;1011.2;;;16;37
74427;BME280;62859;53.906;27.430;2024-02-28T12:54:48;1011.3;;;15.9;37.2
74427;BME280;62859;53.906;27.430;2024-02-28T13:00:07;1011.3;;;16.1;37.2
74427;BME280;62859;53.906;27.430;2024-02-28T13:04:28;1011.3;;;16.1;37.2
74427;BME280;62859;53.906;27.430;2024-02-28T13:09:20;1011.3;;;16.2;37.3
74427;BME280;62859;53.906;27.430;2024-02-28T13:14:46;1011.3;;;15.9;37.8
74427;BME280;62859;53.906;27.430;2024-02-28T13:19:20;1011.2;;;15.7;38.4
74427;BME280;62859;53.906;27.430;2024-02-28T13:24:28;1011.2;;;15.3;39.3
74427;BME280;62859;53.906;27.430;2024-02-28T13:30:06;1011.1;;;14.8;40.8
74427;BME280;62859;53.906;27.430;2024-02-28T13:34:46;1011.1;;;14.8;40.8
74427;BME280;62859;53.906;27.430;2024-02-28T13:39:56;1011.1;;;14.5;41.2
74427;BME280;62859;53.906;27.430;2024-02-28T13:44:20;1011.1;;;14.4;41.6
74427;BME280;62859;53.906;27.430;2024-02-28T13:49:56;1011.2;;;14.2;41.9
74427;BME280;62859;53.906;27.430;2024-02-28T13:54:36;1011.2;;;14;42
74427;BME280;62859;53.906;27.430;2024-02-28T13:59:48;1011.1;;;13.7;42.4
74427;BME280;62859;53.906;27.430;2024-02-28T14:04:20;1011.2;;;13.6;43.1
74427;BME280;62859;53.906;27.430;2024-02-28T14:10:06;1011.2;;;13.3;44.2
74427;BME280;62859;53.906;27.430;2024-02-28T14:14:46;1011.2;;;13.3;44.2
74427;BME280;62859;53.906;27.430;2024-02-28T14:20:06;1011.2;;;13.2;45.1
74427;BME280;62859;53.906;27.430;2024-02-28T14:25:04;1011.1;;;13.3;45.3
74427;BME280;62859;53.906;27.430;2024-02-28T14:29:48;1011.1;;;13.3;45.3
74427;BME280;62859;53.906;27.430;2024-02-28T14:34:56;1011.1;;;13.2;45.5
74427;BME280;62859;53.906;27.430;2024-02-28T14:39:28;1011.1;;;13.2;45.8
74427;BME280;62859;53.906;27.430;2024-02-28T14:44:36;1011.1;;;13.1;46.2
74427;BME280;62859;53.906;27.430;2024-02-28T14:49:20;1011.1;;;13;46.5
74427;BME280;62859;53.906;27.430;2024-02-28T14:54:38;1011.2;;;12.9;46.6
74427;BME280;62859;53.906;27.430;2024-02-28T14:59:20;1011.2;;;12.8;46.8
74427;BME280;62859;53.906;27.430;2024-02-28T15:04:28;1011.2;;;12.8;46.7
74427;BME280;62859;53.906;27.430;2024-02-28T15:09:46;1011.2;;;12.7;46.9
74427;BME280;62859;53.906;27.430;2024-02-28T15:15:06;1011.2;;;12.6;47.2
74427;BME280;62859;53.906;27.430;2024-02-28T15:19:56;1011.2;;;12.6;47.2
74427;BME280;62859;53.906;27.430;2024-02-28T15:24:58;1011.1;;;12.6;47.2
74427;BME280;62859;53.906;27.430;2024-02-28T15:30:06;1011.2;;;12.5;47.3
74427;BME280;62859;53.906;27.430;2024-02-28T15:34:56;1011.2;;;12.5;47.3
74427;BME280;62859;53.906;27.430;2024-02-28T15:40:06;1011.2;;;12.4;47.2
74427;BME280;62859;53.906;27.430;2024-02-28T15:45:06;1011.3;;;12.4;47.2
74427;BME280;62859;53.906;27.430;2024-02-28T15:49:46;1011.3;;;12.4;47.2
74427;BME280;62859;53.906;27.430;2024-02-28T15:54:36;1011.3;;;12.3;47.4
74427;BME280;62859;53.906;27.430;2024-02-28T16:00:06;1011.5;;;12.2;47.3
74427;BME280;62859;53.906;27.430;2024-02-28T16:04:56;1011.5;;;12.2;47.3
74427;BME280;62859;53.906;27.430;2024-02-28T16:10:04;1011.5;;;12;47.6
74427;BME280;62859;53.906;27.430;2024-02-28T16:14:28;1011.5;;;12;47.6
74427;BME280;62859;53.906;27.430;2024-02-28T16:20:04;1011.5;;;12.1;47.5
74427;BME280;62859;53.906;27.430;2024-02-28T16:24:20;1011.5;;;12.1;47.5
74427;BME280;62859;53.906;27.430;2024-02-28T16:29:20;1011.5;;;12.1;47.4
74427;BME280;62859;53.906;27.430;2024-02-28T16:34:28;1011.6;;;12;47.6
74427;BME280;62859;53.906;27.430;2024-02-28T16:39:20;1011.6;;;12;47.7
74427;BME280;62859;53.906;27.430;2024-02-28T16:44:20;1011.6;;;11.9;47.9
74427;BME280;62859;53.906;27.430;2024-02-28T16:50:06;1011.6;;;11.9;47.7
74427;BME280;62859;53.906;27.430;2024-02-28T16:54:40;1011.6;;;11.9;47.7
74427;BME280;62859;53.906;27.430;2024-02-28T17:00:06;1011.6;;;12.2;49
74427;BME280;62859;53.906;27.430;2024-02-28T17:05:07;1011.7;;;12.6;47.9
74427;BME280;62859;53.906;27.430;2024-02-28T17:15:00;1011.7;;;12.5;46.6
74427;BME280;62859;53.906;27.430;2024-02-28T17:20:06;1011.6;;;12.2;47.7
74427;BME280;62859;53.906;27.430;2024-02-28T17:24:30;1011.6;;;12.2;47.7
74427;BME280;62859;53.906;27.430;2024-02-28T17:29:36;1011.6;;;12.1;48
74427;BME280;62859;53.906;27.430;2024-02-28T17:35:07;1011.5;;;11.8;48.8
74427;BME280;62859;53.906;27.430;2024-02-28T17:39:56;1011.5;;;11.8;48.8
74427;BME280;62859;53.906;27.430;2024-02-28T17:45:06;1011.5;;;11.7;49.3
74427;BME280;62859;53.906;27.430;2024-02-28T17:49:20;1011.5;;;11.7;49.3
74427;BME280;62859;53.906;27.430;2024-02-28T17:55:04;1011.5;;;11.6;50
74427;BME280;62859;53.906;27.430;2024-02-28T17:59:20;1011.5;;;11.6;50
74427;BME280;62859;53.906;27.430;2024-02-28T18:04:20;1011.5;;;11.5;50.6
74427;BME280;62859;53.906;27.430;2024-02-28T18:09:28;1011.5;;;11.4;51.2
74427;BME280;62859;53.906;27.430;2024-02-28T18:14:20;1011.5;;;11.5;51.2
74427;BME280;62859;53.906;27.430;2024-02-28T18:19:48;1011.5;;;11.4;51.4
74427;BME280;62859;53.906;27.430;2024-02-28T18:25:04;1011.5;;;11.4;52.2
74427;BME280;62859;53.906;27.430;2024-02-28T18:29:30;1011.5;;;11.4;52.2
74427;BME280;62859;53.906;27.430;2024-02-28T18:34:46;1011.5;;;11.4;52.6
74427;BME280;62859;53.906;27.430;2024-02-28T18:40:04;1011.5;;;11.4;53.3
74427;BME280;62859;53.906;27.430;2024-02-28T18:44:28;1011.5;;;11.4;53.3
74427;BME280;62859;53.906;27.430;2024-02-28T18:49:22;1011.4;;;11.3;53.8
74427;BME280;62859;53.906;27.430;2024-02-28T18:54:28;1011.4;;;11.3;54.3
74427;BME280;62859;53.906;27.430;2024-02-28T18:59:44;1011.4;;;11.4;54.9
74427;BME280;62859;53.906;27.430;2024-02-28T19:04:36;1011.4;;;11.3;54.6
74427;BME280;62859;53.906;27.430;2024-02-28T19:09:22;1011.4;;;11.2;54.7
74427;BME280;62859;53.906;27.430;2024-02-28T19:14:26;1011.4;;;11.2;54.6
74427;BME280;62859;53.906;27.430;2024-02-28T19:19:44;1011.4;;;11.1;54.5
74427;BME280;62859;53.906;27.430;2024-02-28T19:24:20;1011.4;;;11.1;54.4
74427;BME280;62859;53.906;27.430;2024-02-28T19:30:04;1011.5;;;11.1;54.4
74427;BME280;62859;53.906;27.430;2024-02-28T19:35:04;1011.4;;;11;54.5
74427;BME280;62859;53.906;27.430;2024-02-28T19:39:28;1011.4;;;11;54.5
74427;BME280;62859;53.906;27.430;2024-02-28T19:44:34;1011.4;;;11;54.8
74427;BME280;62859;53.906;27.430;2024-02-28T19:49:20;1011.4;;;10.8;55
74427;BME280;62859;53.906;27.430;2024-02-28T19:54:28;1011.4;;;10.8;55.5
74427;BME280;62859;53.906;27.430;2024-02-28T19:59:48;1011.3;;;10.7;55.7
74427;BME280;62859;53.906;27.430;2024-02-28T20:05:04;1011.3;;;10.6;56.4
74427;BME280;62859;53.906;27.430;2024-02-28T20:09:20;1011.3;;;10.6;56.4
74427;BME280;62859;53.906;27.430;2024-02-28T20:14:56;1011.3;;;10.6;56.5
74427;BME280;62859;53.906;27.430;2024-02-28T20:19:46;1011.3;;;10.5;56.5
74427;BME280;62859;53.906;27.430;2024-02-28T20:25:04;1011.2;;;10.4;57.1
74427;BME280;62859;53.906;27.430;2024-02-28T20:29:36;1011.2;;;10.4;57.1
74427;BME280;62859;53.906;27.430;2024-02-28T20:34:56;1011.3;;;10.4;57.3
74427;BME280;62859;53.906;27.430;2024-02-28T20:39:36;1011.3;;;10.4;57.5
74427;BME280;62859;53.906;27.430;2024-02-28T20:44:56;1011.3;;;10.3;57.8
74427;BME280;62859;53.906;27.430;2024-02-28T20:49:44;1011.3;;;10.3;58
74427;BME280;62859;53.906;27.430;2024-02-28T20:54:54;1011.3;;;10.3;58.3
74427;BME280;62859;53.906;27.430;2024-02-28T20:59:34;1011.3;;;10.3;58.5
74427;BME280;62859;53.906;27.430;2024-02-28T21:04:54;1011.3;;;10.3;58.5
74427;BME280;62859;53.906;27.430;2024-02-28T21:10:04;1011.3;;;10.3;58.9
74427;BME280;62859;53.906;27.430;2024-02-28T21:14:28;1011.3;;;10.3;58.9
74427;BME280;62859;53.906;27.430;2024-02-28T21:19:28;1011.3;;;10.4;58.8
74427;BME280;62859;53.906;27.430;2024-02-28T21:24:20;1011.3;;;10.4;58.9
74427;BME280;62859;53.906;27.430;2024-02-28T21:29:20;1011.2;;;10.4;58.8
74427;BME280;62859;53.906;27.430;2024-02-28T21:34:28;1011.2;;;10.5;58.8
74427;BME280;62859;53.906;27.430;2024-02-28T21:40:04;1011.3;;;10.5;58.7
74427;BME280;62859;53.906;27.430;2024-02-28T21:44:38;1011.3;;;10.5;58.7
74427;BME280;62859;53.906;27.430;2024-02-28T21:49:22;1011.3;;;10.4;58.9
74427;BME280;62859;53.906;27.430;2024-02-28T21:54:46;1011.2;;;10.4;59.1
74427;BME280;62859;53.906;27.430;2024-02-28T22:00:05;1011.2;;;10.4;59.3
74427;BME280;62859;53.906;27.430;2024-02-28T22:04:20;1011.2;;;10.4;59.3
74427;BME280;62859;53.906;27.430;2024-02-28T22:10:05;1011.3;;;10.4;59.6
74427;BME280;62859;53.906;27.430;2024-02-28T22:14:36;1011.3;;;10.4;59.6
74427;BME280;62859;53.906;27.430;2024-02-28T22:19:48;1011.3;;;10.5;59.9
74427;BME280;62859;53.906;27.430;2024-02-28T22:24:44;1011.3;;;10.5;59.7
74427;BME280;62859;53.906;27.430;2024-02-28T22:30:05;1011.3;;;10.5;59.7
74427;BME280;62859;53.906;27.430;2024-02-28T22:34:20;1011.3;;;10.5;59.7
74427;BME280;62859;53.906;27.430;2024-02-28T22:39:36;1011.3;;;10.5;59.8
74427;BME280;62859;53.906;27.430;2024-02-28T22:45:04;1011.3;;;10.5;59.9
74427;BME280;62859;53.906;27.430;2024-02-28T22:49:28;1011.3;;;10.5;59.9
74427;BME280;62859;53.906;27.430;2024-02-28T22:54:20;1011.3;;;10.4;59.9
74427;BME280;62859;53.906;27.430;2024-02-28T22:59:28;1011.3;;;10.4;60.1
74427;BME280;62859;53.906;27.430;2024-02-28T23:04:36;1011.3;;;10.5;60.3
74427;BME280;62859;53.906;27.430;2024-02-28T23:09:20;1011.3;;;10.5;60.2
74427;BME280;62859;53.906;27.430;2024-02-28T23:14:20;1011.3;;;10.5;60.3
74427;BME280;62859;53.906;27.430;2024-02-28T23:19:28;1011.3;;;10.5;60.2
74427;BME280;62859;53.906;27.430;2024-02-28T23:25:04;1011.3;;;10.6;60.4
74427;BME280;62859;53.906;27.430;2024-02-28T23:29:54;1011.3;;;10.6;60.4
74427;BME280;62859;53.906;27.430;2024-02-28T23:34:22;1011.3;;;10.6;60.3
74427;BME280;62859;53.906;27.430;2024-02-28T23:40:05;1011.4;;;10.7;60.3
74427;BME280;62859;53.906;27.430;2024-02-28T23:44:56;1011.4;;;10.7;60.3
74427;BME280;62859;53.906;27.430;2024-02-28T23:50:04;1011.5;;;10.8;60.1
74427;BME280;62859;53.906;27.430;2024-02-28T23:55:04;1011.4;;;10.7;60.2
74427;BME280;62859;53.906;27.430;2024-02-28T23:59:30;1011.4;;;10.7;60.2
